Flight Track Log - Related Links

Times and Time Zones

All times are in EDT time to prevent confusion due to time zone crossing. See the THY2256 flight status page for this flight to view local times or setup timezone preferences in your user account.

Time Position Orientation Groundspeed Altitude Reporting Facility
EDT Latitude Longitude Course Direction KTS MPH feet Rate Location/Type
Thu 05:30:00 PM 40.4041 29.8760 125° Southeast  Level Estimated
Thu 05:31:00 PM 40.3399 29.9921 126° Southeast  Level Estimated
Thu 05:32:00 PM 40.2755 30.1080 126° Southeast  Level Estimated
Thu 05:33:00 PM 40.2111 30.2236 126° Southeast  Level Estimated
Thu 05:34:00 PM 40.1465 30.3391 126° Southeast  Level Estimated
Thu 05:35:00 PM 40.0818 30.4543 126° Southeast  Level Estimated
Thu 05:36:00 PM 40.0170 30.5693 126° Southeast  Level Estimated
Thu 05:37:00 PM 39.9521 30.6840 126° Southeast  Level Estimated
Thu 05:38:00 PM 39.8871 30.7986 126° Southeast  Level Estimated
Thu 05:39:00 PM 39.8219 30.9129 127° Southeast  Level Estimated
Thu 05:40:00 PM 39.7567 31.0271 127° Southeast  Level Estimated
Thu 05:41:00 PM 39.6913 31.1410 127° Southeast  Level Estimated
Thu 05:42:00 PM 39.6258 31.2547 127° Southeast  Level Estimated
Thu 05:43:00 PM 39.5602 31.3682 127° Southeast  Level Estimated
Thu 05:44:00 PM 39.4945 31.4814 127° Southeast  Level Estimated
Thu 05:45:00 PM 39.4287 31.5945 127° Southeast  Level Estimated
Thu 05:46:00 PM 39.3628 31.7073 127° Southeast  Level Estimated
Thu 05:47:00 PM 39.2968 31.8199 127° Southeast  Level Estimated
Thu 05:48:00 PM 39.2306 31.9323 127° Southeast  Level Estimated
Thu 05:49:00 PM 39.1644 32.0445 127° Southeast  Level Estimated
Thu 05:50:00 PM 39.0980 32.1565 127° Southeast  Level Estimated
Thu 05:51:00 PM 39.0316 32.2683 127° Southeast  Level Estimated
Thu 05:52:00 PM 38.9650 32.3799 127° Southeast  Level Estimated
Thu 05:53:00 PM 38.8984 32.4912 128° Southeast  Level Estimated
Thu 05:54:00 PM 38.8316 32.6024 128° Southeast  Level Estimated
Thu 05:55:00 PM 38.7647 32.7133 128° Southeast  Level Estimated
Thu 05:56:00 PM 38.6977 32.8241 128° Southeast  Level Estimated
Thu 05:57:00 PM 38.6306 32.9346 128° Southeast  Level Estimated
Thu 05:58:00 PM 38.5634 33.0449 128° Southeast  Level Estimated
Thu 05:59:00 PM 38.4962 33.1550 128° Southeast  Level Estimated
Thu 06:00:00 PM 38.4287 33.2649 128° Southeast  Level Estimated
Thu 06:01:00 PM 38.3613 33.3746 128° Southeast  Level Estimated
Thu 06:02:00 PM 38.2937 33.4841 128° Southeast  Level Estimated
Thu 06:03:00 PM 38.2259 33.5934 128° Southeast  Level Estimated
Thu 06:04:00 PM 38.1581 33.7025 128° Southeast  Level Estimated
Thu 06:05:00 PM 38.0902 33.8114 128° Southeast  Level Estimated
Thu 06:06:00 PM 38.0222 33.9201 128° Southeast  Level Estimated
Thu 06:07:00 PM 37.9541 34.0285 129° Southeast  Level Estimated
Thu 06:08:00 PM 37.8859 34.1368 129° Southeast  Level Estimated
Thu 06:09:00 PM 37.8176 34.2449 129° Southeast  Level Estimated
Thu 06:10:00 PM 37.7492 34.3528 129° Southeast  Level Estimated
Thu 06:11:00 PM 37.6807 34.4604 129° Southeast  Level Estimated
Thu 06:12:00 PM 37.6121 34.5679 129° Southeast  Level Estimated
Thu 06:13:00 PM 37.5434 34.6752 129° Southeast  Level Estimated
Thu 06:14:00 PM 37.4746 34.7823 129° Southeast  Level Estimated
Thu 06:15:00 PM 37.4057 34.8892 129° Southeast  Level Estimated
Thu 06:16:00 PM 37.3367 34.9959 129° Southeast  Level Estimated
Thu 06:17:00 PM 37.2677 35.1024 129° Southeast  Level Estimated
Thu 06:18:00 PM 37.1985 35.2087 129° Southeast  Level Estimated
Thu 06:19:00 PM 37.1292 35.3148 129° Southeast  Level Estimated
Thu 06:20:00 PM 37.0598 35.4207 129° Southeast  Level Estimated
Thu 06:21:00 PM 36.9904 35.5264 129° Southeast  Level Estimated
Thu 06:22:00 PM 36.9208 35.6320 129° Southeast  Level Estimated
Thu 06:23:00 PM 36.8512 35.7373 130° Southeast  Level Estimated
Thu 06:24:00 PM 36.7814 35.8424 130° Southeast  Level Estimated
Thu 06:25:00 PM 36.7116 35.9474 130° Southeast  Level Estimated
Thu 06:26:00 PM 36.6417 36.0521 130° Southeast  Level Estimated
Thu 06:27:00 PM 36.5735 36.1540 130° Southeast  Level Estimated
Thu 06:28:00 PM 36.5735 36.1540 North  Level Estimated
Thu 06:29:00 PM 36.5735 36.1540 North  Level Estimated
Thu 06:30:00 PM 36.5735 36.1540 North  Level Estimated
Thu 06:31:00 PM 36.5735 36.1540 North  Level Estimated
Thu 06:32:00 PM 36.5735 36.1540 North  Level Estimated
Thu 06:33:00 PM 36.5735 36.1540 North  Level Estimated
Thu 06:34:00 PM 36.5735 36.1540 North  Level Estimated
Thu 06:35:00 PM 36.5735 36.1540 North  Level Estimated
Thu 06:36:00 PM 36.5735 36.1540 North  Level Estimated
Thu 06:37:00 PM 36.5735 36.1540 North  Level Estimated
Thu 06:38:00 PM 36.5735 36.1540 North  Level Estimated
Thu 06:39:00 PM 36.5735 36.1540 North  Level Estimated
Thu 06:40:00 PM 36.5735 36.1540 North  Level Estimated
Thu 06:41:00 PM 36.5735 36.1540 North  Level Estimated
Thu 06:42:00 PM 36.5735 36.1540 North  Level Estimated
Thu 06:43:00 PM 36.5735 36.1540 North  Level Estimated

Login

Don't have an account? Register now (free) for customized features, flight alerts, and more!